sensor_id;sensor_type;location;lat;lon;timestamp;P1;durP1;ratioP1;P2;durP2;ratioP2
74945;SDS011;63509;45.250;38.102;2023-04-03T00:01:20;8.02;;;2.72;;
74945;SDS011;63509;45.250;38.102;2023-04-03T00:03:46;12.80;;;3.65;;
74945;SDS011;63509;45.250;38.102;2023-04-03T00:06:12;7.22;;;2.58;;
74945;SDS011;63509;45.250;38.102;2023-04-03T00:08:39;9.48;;;2.38;;
74945;SDS011;63509;45.250;38.102;2023-04-03T00:11:06;9.25;;;2.67;;
74945;SDS011;63509;45.250;38.102;2023-04-03T00:13:32;8.80;;;2.33;;
74945;SDS011;63509;45.250;38.102;2023-04-03T00:15:58;6.55;;;2.35;;
74945;SDS011;63509;45.250;38.102;2023-04-03T00:18:25;11.75;;;2.38;;
74945;SDS011;63509;45.250;38.102;2023-04-03T00:20:51;6.22;;;2.10;;
74945;SDS011;63509;45.250;38.102;2023-04-03T00:23:16;9.25;;;2.28;;
74945;SDS011;63509;45.250;38.102;2023-04-03T00:25:43;6.93;;;2.45;;
74945;SDS011;63509;45.250;38.102;2023-04-03T00:28:09;4.93;;;2.50;;
74945;SDS011;63509;45.250;38.102;2023-04-03T00:30:35;5.68;;;2.05;;
74945;SDS011;63509;45.250;38.102;2023-04-03T00:33:01;8.23;;;2.13;;
74945;SDS011;63509;45.250;38.102;2023-04-03T00:35:27;8.60;;;2.38;;
74945;SDS011;63509;45.250;38.102;2023-04-03T00:37:54;7.05;;;2.80;;
74945;SDS011;63509;45.250;38.102;2023-04-03T00:40:22;7.70;;;2.13;;
74945;SDS011;63509;45.250;38.102;2023-04-03T00:42:54;6.90;;;2.08;;
74945;SDS011;63509;45.250;38.102;2023-04-03T00:45:25;8.75;;;2.20;;
74945;SDS011;63509;45.250;38.102;2023-04-03T00:47:54;8.02;;;1.90;;
74945;SDS011;63509;45.250;38.102;2023-04-03T00:50:21;8.85;;;2.40;;
74945;SDS011;63509;45.250;38.102;2023-04-03T00:52:49;6.30;;;2.30;;
74945;SDS011;63509;45.250;38.102;2023-04-03T00:55:15;6.43;;;2.38;;
74945;SDS011;63509;45.250;38.102;2023-04-03T00:57:42;7.85;;;2.47;;
74945;SDS011;63509;45.250;38.102;2023-04-03T01:00:11;7.60;;;2.65;;
74945;SDS011;63509;45.250;38.102;2023-04-03T01:02:40;7.55;;;2.97;;
74945;SDS011;63509;45.250;38.102;2023-04-03T01:05:11;16.70;;;3.00;;
74945;SDS011;63509;45.250;38.102;2023-04-03T01:07:38;11.80;;;3.03;;
74945;SDS011;63509;45.250;38.102;2023-04-03T01:10:09;6.88;;;3.10;;
74945;SDS011;63509;45.250;38.102;2023-04-03T01:12:40;9.27;;;3.17;;
74945;SDS011;63509;45.250;38.102;2023-04-03T01:15:10;5.82;;;2.78;;
74945;SDS011;63509;45.250;38.102;2023-04-03T01:17:40;9.82;;;3.08;;
74945;SDS011;63509;45.250;38.102;2023-04-03T01:28:10;6.55;;;3.15;;
74945;SDS011;63509;45.250;38.102;2023-04-03T01:33:14;9.30;;;3.22;;
74945;SDS011;63509;45.250;38.102;2023-04-03T01:35:40;13.80;;;2.72;;
74945;SDS011;63509;45.250;38.102;2023-04-03T01:38:06;6.10;;;3.17;;
74945;SDS011;63509;45.250;38.102;2023-04-03T01:40:32;5.30;;;2.60;;
74945;SDS011;63509;45.250;38.102;2023-04-03T01:42:58;13.00;;;2.80;;
74945;SDS011;63509;45.250;38.102;2023-04-03T01:45:24;20.25;;;3.63;;
74945;SDS011;63509;45.250;38.102;2023-04-03T01:47:50;4.80;;;1.92;;
74945;SDS011;63509;45.250;38.102;2023-04-03T01:50:16;5.38;;;2.42;;
74945;SDS011;63509;45.250;38.102;2023-04-03T01:52:43;6.40;;;1.90;;
74945;SDS011;63509;45.250;38.102;2023-04-03T01:55:09;5.95;;;2.08;;
74945;SDS011;63509;45.250;38.102;2023-04-03T01:57:35;7.10;;;2.70;;
74945;SDS011;63509;45.250;38.102;2023-04-03T02:00:02;8.85;;;2.28;;
74945;SDS011;63509;45.250;38.102;2023-04-03T02:02:38;8.82;;;2.20;;
74945;SDS011;63509;45.250;38.102;2023-04-03T02:05:04;4.00;;;2.08;;
74945;SDS011;63509;45.250;38.102;2023-04-03T02:07:31;11.48;;;2.63;;
74945;SDS011;63509;45.250;38.102;2023-04-03T02:09:57;3.67;;;1.77;;
74945;SDS011;63509;45.250;38.102;2023-04-03T02:12:23;5.03;;;1.73;;
74945;SDS011;63509;45.250;38.102;2023-04-03T02:14:49;8.43;;;1.70;;
74945;SDS011;63509;45.250;38.102;2023-04-03T02:17:15;10.25;;;2.30;;
74945;SDS011;63509;45.250;38.102;2023-04-03T02:19:42;5.07;;;2.25;;
74945;SDS011;63509;45.250;38.102;2023-04-03T02:22:08;7.57;;;1.88;;
74945;SDS011;63509;45.250;38.102;2023-04-03T02:24:34;6.22;;;2.33;;
74945;SDS011;63509;45.250;38.102;2023-04-03T02:27:00;7.55;;;1.90;;
74945;SDS011;63509;45.250;38.102;2023-04-03T02:29:27;5.03;;;2.03;;
74945;SDS011;63509;45.250;38.102;2023-04-03T02:31:53;15.93;;;2.10;;
74945;SDS011;63509;45.250;38.102;2023-04-03T02:34:20;3.42;;;1.58;;
74945;SDS011;63509;45.250;38.102;2023-04-03T02:36:46;6.57;;;2.40;;
74945;SDS011;63509;45.250;38.102;2023-04-03T02:39:14;5.13;;;2.08;;
74945;SDS011;63509;45.250;38.102;2023-04-03T02:41:40;5.93;;;2.10;;
74945;SDS011;63509;45.250;38.102;2023-04-03T02:44:12;3.78;;;1.85;;
74945;SDS011;63509;45.250;38.102;2023-04-03T02:46:39;6.00;;;2.28;;
74945;SDS011;63509;45.250;38.102;2023-04-03T02:49:05;5.45;;;2.15;;
74945;SDS011;63509;45.250;38.102;2023-04-03T02:51:31;9.23;;;2.38;;
74945;SDS011;63509;45.250;38.102;2023-04-03T02:53:58;7.22;;;2.65;;
74945;SDS011;63509;45.250;38.102;2023-04-03T02:56:27;11.57;;;2.55;;
74945;SDS011;63509;45.250;38.102;2023-04-03T02:58:53;9.23;;;3.25;;
74945;SDS011;63509;45.250;38.102;2023-04-03T03:01:19;9.75;;;2.45;;
74945;SDS011;63509;45.250;38.102;2023-04-03T03:03:45;8.77;;;2.30;;
74945;SDS011;63509;45.250;38.102;2023-04-03T03:06:13;9.38;;;2.92;;
74945;SDS011;63509;45.250;38.102;2023-04-03T03:08:40;11.00;;;3.33;;
74945;SDS011;63509;45.250;38.102;2023-04-03T03:11:07;6.75;;;2.50;;
74945;SDS011;63509;45.250;38.102;2023-04-03T03:13:33;7.25;;;2.78;;
74945;SDS011;63509;45.250;38.102;2023-04-03T03:16:00;10.95;;;3.20;;
74945;SDS011;63509;45.250;38.102;2023-04-03T03:18:26;6.13;;;2.40;;
74945;SDS011;63509;45.250;38.102;2023-04-03T03:20:54;5.93;;;2.80;;
74945;SDS011;63509;45.250;38.102;2023-04-03T03:23:21;17.27;;;2.83;;
74945;SDS011;63509;45.250;38.102;2023-04-03T03:25:48;14.35;;;3.70;;
74945;SDS011;63509;45.250;38.102;2023-04-03T03:28:15;7.55;;;2.85;;
74945;SDS011;63509;45.250;38.102;2023-04-03T03:30:41;13.38;;;5.40;;
74945;SDS011;63509;45.250;38.102;2023-04-03T03:33:07;10.57;;;5.28;;
74945;SDS011;63509;45.250;38.102;2023-04-03T03:35:33;9.85;;;4.90;;
74945;SDS011;63509;45.250;38.102;2023-04-03T03:37:59;9.85;;;3.38;;
74945;SDS011;63509;45.250;38.102;2023-04-03T03:40:25;18.67;;;3.55;;
74945;SDS011;63509;45.250;38.102;2023-04-03T03:42:51;13.25;;;3.08;;
74945;SDS011;63509;45.250;38.102;2023-04-03T03:45:18;14.80;;;3.83;;
74945;SDS011;63509;45.250;38.102;2023-04-03T03:47:44;10.02;;;5.60;;
74945;SDS011;63509;45.250;38.102;2023-04-03T03:50:11;13.20;;;5.25;;
74945;SDS011;63509;45.250;38.102;2023-04-03T03:52:37;7.53;;;3.88;;
74945;SDS011;63509;45.250;38.102;2023-04-03T03:55:04;11.48;;;3.75;;
74945;SDS011;63509;45.250;38.102;2023-04-03T03:57:31;10.73;;;4.00;;
74945;SDS011;63509;45.250;38.102;2023-04-03T03:59:57;13.43;;;6.25;;
74945;SDS011;63509;45.250;38.102;2023-04-03T04:02:24;15.15;;;7.32;;
74945;SDS011;63509;45.250;38.102;2023-04-03T04:04:51;20.02;;;6.57;;
74945;SDS011;63509;45.250;38.102;2023-04-03T04:07:17;15.50;;;7.10;;
74945;SDS011;63509;45.250;38.102;2023-04-03T04:09:44;15.38;;;4.65;;
74945;SDS011;63509;45.250;38.102;2023-04-03T04:12:10;17.65;;;4.78;;
74945;SDS011;63509;45.250;38.102;2023-04-03T04:14:37;9.98;;;4.22;;
74945;SDS011;63509;45.250;38.102;2023-04-03T04:17:05;7.85;;;3.53;;
74945;SDS011;63509;45.250;38.102;2023-04-03T04:19:32;12.48;;;3.67;;
74945;SDS011;63509;45.250;38.102;2023-04-03T04:21:58;12.05;;;3.72;;
74945;SDS011;63509;45.250;38.102;2023-04-03T04:24:24;18.50;;;4.43;;
74945;SDS011;63509;45.250;38.102;2023-04-03T04:26:53;12.93;;;3.50;;
74945;SDS011;63509;45.250;38.102;2023-04-03T04:29:20;10.73;;;3.72;;
74945;SDS011;63509;45.250;38.102;2023-04-03T04:31:48;8.35;;;3.20;;
74945;SDS011;63509;45.250;38.102;2023-04-03T04:34:15;11.00;;;3.50;;
74945;SDS011;63509;45.250;38.102;2023-04-03T04:36:41;8.32;;;3.40;;
74945;SDS011;63509;45.250;38.102;2023-04-03T04:39:07;8.93;;;3.65;;
74945;SDS011;63509;45.250;38.102;2023-04-03T04:41:33;10.07;;;4.47;;
74945;SDS011;63509;45.250;38.102;2023-04-03T04:44:02;9.45;;;3.28;;
74945;SDS011;63509;45.250;38.102;2023-04-03T04:46:28;11.13;;;3.47;;
74945;SDS011;63509;45.250;38.102;2023-04-03T04:48:57;11.27;;;3.55;;
74945;SDS011;63509;45.250;38.102;2023-04-03T04:51:26;12.27;;;3.47;;
74945;SDS011;63509;45.250;38.102;2023-04-03T04:53:53;10.73;;;3.83;;
74945;SDS011;63509;45.250;38.102;2023-04-03T04:56:19;9.55;;;3.35;;
74945;SDS011;63509;45.250;38.102;2023-04-03T04:58:47;10.32;;;3.20;;
74945;SDS011;63509;45.250;38.102;2023-04-03T05:01:15;7.95;;;3.75;;
74945;SDS011;63509;45.250;38.102;2023-04-03T05:03:50;9.15;;;3.83;;
74945;SDS011;63509;45.250;38.102;2023-04-03T05:06:17;15.27;;;4.53;;
74945;SDS011;63509;45.250;38.102;2023-04-03T05:08:44;14.95;;;3.95;;
74945;SDS011;63509;45.250;38.102;2023-04-03T05:11:10;12.52;;;4.00;;
74945;SDS011;63509;45.250;38.102;2023-04-03T05:13:37;11.88;;;3.85;;
74945;SDS011;63509;45.250;38.102;2023-04-03T05:16:03;17.48;;;4.32;;
74945;SDS011;63509;45.250;38.102;2023-04-03T05:18:31;21.15;;;4.03;;
74945;SDS011;63509;45.250;38.102;2023-04-03T05:21:00;9.65;;;3.80;;
74945;SDS011;63509;45.250;38.102;2023-04-03T05:23:27;14.88;;;4.90;;
74945;SDS011;63509;45.250;38.102;2023-04-03T05:25:54;10.98;;;4.20;;
74945;SDS011;63509;45.250;38.102;2023-04-03T05:28:21;21.38;;;3.55;;
74945;SDS011;63509;45.250;38.102;2023-04-03T05:30:55;12.57;;;3.10;;
74945;SDS011;63509;45.250;38.102;2023-04-03T05:33:25;11.38;;;3.30;;
74945;SDS011;63509;45.250;38.102;2023-04-03T05:35:53;24.27;;;3.75;;
74945;SDS011;63509;45.250;38.102;2023-04-03T05:38:25;14.93;;;3.58;;
74945;SDS011;63509;45.250;38.102;2023-04-03T05:40:52;9.00;;;3.75;;
74945;SDS011;63509;45.250;38.102;2023-04-03T05:43:18;13.07;;;2.90;;
74945;SDS011;63509;45.250;38.102;2023-04-03T05:45:44;16.15;;;3.30;;
74945;SDS011;63509;45.250;38.102;2023-04-03T05:48:13;12.75;;;3.25;;
74945;SDS011;63509;45.250;38.102;2023-04-03T05:50:39;12.77;;;3.47;;
74945;SDS011;63509;45.250;38.102;2023-04-03T05:53:15;9.60;;;3.13;;
74945;SDS011;63509;45.250;38.102;2023-04-03T05:55:48;8.27;;;2.10;;
74945;SDS011;63509;45.250;38.102;2023-04-03T05:58:14;15.23;;;3.20;;
74945;SDS011;63509;45.250;38.102;2023-04-03T06:00:41;10.80;;;2.92;;
74945;SDS011;63509;45.250;38.102;2023-04-03T06:03:08;18.60;;;2.63;;
74945;SDS011;63509;45.250;38.102;2023-04-03T06:05:34;22.02;;;3.03;;
74945;SDS011;63509;45.250;38.102;2023-04-03T06:08:01;21.02;;;3.10;;
74945;SDS011;63509;45.250;38.102;2023-04-03T06:10:29;5.47;;;2.75;;
74945;SDS011;63509;45.250;38.102;2023-04-03T06:12:56;6.55;;;2.78;;
74945;SDS011;63509;45.250;38.102;2023-04-03T06:15:22;9.02;;;2.17;;
74945;SDS011;63509;45.250;38.102;2023-04-03T06:17:48;5.03;;;2.70;;
74945;SDS011;63509;45.250;38.102;2023-04-03T06:20:15;5.70;;;2.22;;
74945;SDS011;63509;45.250;38.102;2023-04-03T06:22:41;8.02;;;2.15;;
74945;SDS011;63509;45.250;38.102;2023-04-03T06:25:08;18.33;;;2.67;;
74945;SDS011;63509;45.250;38.102;2023-04-03T06:27:35;17.73;;;2.70;;
74945;SDS011;63509;45.250;38.102;2023-04-03T06:30:01;32.17;;;3.97;;
74945;SDS011;63509;45.250;38.102;2023-04-03T06:32:27;8.55;;;3.03;;
74945;SDS011;63509;45.250;38.102;2023-04-03T06:34:53;8.57;;;2.65;;
74945;SDS011;63509;45.250;38.102;2023-04-03T06:37:21;18.63;;;2.10;;
74945;SDS011;63509;45.250;38.102;2023-04-03T06:39:48;9.95;;;2.15;;
74945;SDS011;63509;45.250;38.102;2023-04-03T06:42:14;15.07;;;2.83;;
74945;SDS011;63509;45.250;38.102;2023-04-03T06:44:52;15.15;;;2.50;;
74945;SDS011;63509;45.250;38.102;2023-04-03T06:47:18;15.10;;;2.22;;
74945;SDS011;63509;45.250;38.102;2023-04-03T06:49:44;13.98;;;2.45;;
74945;SDS011;63509;45.250;38.102;2023-04-03T06:52:10;7.43;;;1.92;;
74945;SDS011;63509;45.250;38.102;2023-04-03T06:54:40;15.48;;;3.10;;
74945;SDS011;63509;45.250;38.102;2023-04-03T06:57:07;16.02;;;1.77;;
74945;SDS011;63509;45.250;38.102;2023-04-03T06:59:34;10.35;;;1.90;;
74945;SDS011;63509;45.250;38.102;2023-04-03T07:02:00;12.88;;;1.90;;
74945;SDS011;63509;45.250;38.102;2023-04-03T07:04:26;13.52;;;2.88;;
74945;SDS011;63509;45.250;38.102;2023-04-03T07:06:52;9.57;;;1.98;;
74945;SDS011;63509;45.250;38.102;2023-04-03T07:09:18;11.13;;;2.08;;
74945;SDS011;63509;45.250;38.102;2023-04-03T07:11:45;22.92;;;2.00;;
74945;SDS011;63509;45.250;38.102;2023-04-03T07:14:11;5.28;;;2.05;;
74945;SDS011;63509;45.250;38.102;2023-04-03T07:16:37;7.72;;;1.90;;
74945;SDS011;63509;45.250;38.102;2023-04-03T07:19:03;13.90;;;2.40;;
74945;SDS011;63509;45.250;38.102;2023-04-03T07:21:29;10.52;;;1.95;;
74945;SDS011;63509;45.250;38.102;2023-04-03T07:23:55;27.80;;;2.58;;
74945;SDS011;63509;45.250;38.102;2023-04-03T07:26:21;11.50;;;3.13;;
74945;SDS011;63509;45.250;38.102;2023-04-03T07:28:48;8.25;;;1.70;;
74945;SDS011;63509;45.250;38.102;2023-04-03T07:31:15;7.13;;;2.13;;
74945;SDS011;63509;45.250;38.102;2023-04-03T07:33:42;6.28;;;2.33;;
74945;SDS011;63509;45.250;38.102;2023-04-03T07:36:10;6.38;;;1.40;;
74945;SDS011;63509;45.250;38.102;2023-04-03T07:38:42;4.45;;;1.50;;
74945;SDS011;63509;45.250;38.102;2023-04-03T07:41:10;12.02;;;2.78;;
74945;SDS011;63509;45.250;38.102;2023-04-03T07:43:40;14.05;;;2.70;;
74945;SDS011;63509;45.250;38.102;2023-04-03T07:46:07;20.25;;;2.35;;
74945;SDS011;63509;45.250;38.102;2023-04-03T07:48:34;13.52;;;1.83;;
74945;SDS011;63509;45.250;38.102;2023-04-03T07:51:01;9.32;;;2.30;;
74945;SDS011;63509;45.250;38.102;2023-04-03T07:53:28;13.05;;;2.28;;
74945;SDS011;63509;45.250;38.102;2023-04-03T07:55:56;14.00;;;2.13;;
74945;SDS011;63509;45.250;38.102;2023-04-03T08:00:49;9.65;;;2.20;;
74945;SDS011;63509;45.250;38.102;2023-04-03T08:03:16;8.35;;;1.90;;
74945;SDS011;63509;45.250;38.102;2023-04-03T08:05:43;10.48;;;2.92;;
74945;SDS011;63509;45.250;38.102;2023-04-03T08:08:12;17.30;;;1.77;;
74945;SDS011;63509;45.250;38.102;2023-04-03T08:10:39;8.68;;;1.98;;
74945;SDS011;63509;45.250;38.102;2023-04-03T08:13:06;20.35;;;2.22;;
74945;SDS011;63509;45.250;38.102;2023-04-03T08:15:34;20.85;;;2.22;;
74945;SDS011;63509;45.250;38.102;2023-04-03T08:18:00;24.13;;;2.42;;
74945;SDS011;63509;45.250;38.102;2023-04-03T08:20:27;11.13;;;2.15;;
74945;SDS011;63509;45.250;38.102;2023-04-03T08:22:53;6.78;;;1.92;;
74945;SDS011;63509;45.250;38.102;2023-04-03T08:25:20;7.97;;;1.50;;
74945;SDS011;63509;45.250;38.102;2023-04-03T08:27:46;9.50;;;1.77;;
74945;SDS011;63509;45.250;38.102;2023-04-03T08:30:12;6.95;;;1.55;;
74945;SDS011;63509;45.250;38.102;2023-04-03T08:32:39;8.95;;;1.73;;
74945;SDS011;63509;45.250;38.102;2023-04-03T08:35:07;10.30;;;2.80;;
74945;SDS011;63509;45.250;38.102;2023-04-03T08:37:36;10.40;;;1.90;;
74945;SDS011;63509;45.250;38.102;2023-04-03T08:40:04;14.88;;;2.38;;
74945;SDS011;63509;45.250;38.102;2023-04-03T08:48:11;10.20;;;2.08;;
74945;SDS011;63509;45.250;38.102;2023-04-03T08:50:39;12.18;;;2.08;;
74945;SDS011;63509;45.250;38.102;2023-04-03T08:53:12;14.00;;;1.85;;
74945;SDS011;63509;45.250;38.102;2023-04-03T08:55:47;6.38;;;2.05;;
74945;SDS011;63509;45.250;38.102;2023-04-03T08:58:16;10.68;;;2.25;;
74945;SDS011;63509;45.250;38.102;2023-04-03T09:00:52;24.13;;;2.03;;
74945;SDS011;63509;45.250;38.102;2023-04-03T09:03:32;14.90;;;2.13;;
74945;SDS011;63509;45.250;38.102;2023-04-03T09:06:05;9.40;;;2.42;;
74945;SDS011;63509;45.250;38.102;2023-04-03T09:11:24;14.65;;;2.50;;
74945;SDS011;63509;45.250;38.102;2023-04-03T09:14:11;12.15;;;1.70;;
74945;SDS011;63509;45.250;38.102;2023-04-03T09:27:38;6.22;;;1.98;;
74945;SDS011;63509;45.250;38.102;2023-04-03T09:30:05;7.13;;;1.83;;
74945;SDS011;63509;45.250;38.102;2023-04-03T09:32:38;6.65;;;2.13;;
74945;SDS011;63509;45.250;38.102;2023-04-03T09:35:06;17.55;;;2.30;;
74945;SDS011;63509;45.250;38.102;2023-04-03T09:42:52;29.13;;;4.32;;
74945;SDS011;63509;45.250;38.102;2023-04-03T09:53:32;13.15;;;2.15;;
74945;SDS011;63509;45.250;38.102;2023-04-03T09:59:24;9.00;;;2.25;;
74945;SDS011;63509;45.250;38.102;2023-04-03T10:01:41;27.73;;;2.60;;
74945;SDS011;63509;45.250;38.102;2023-04-03T10:06:46;13.90;;;2.60;;
74945;SDS011;63509;45.250;38.102;2023-04-03T10:14:27;38.60;;;3.47;;
74945;SDS011;63509;45.250;38.102;2023-04-03T10:20:48;40.78;;;5.13;;
74945;SDS011;63509;45.250;38.102;2023-04-03T10:25:40;19.33;;;2.25;;
74945;SDS011;63509;45.250;38.102;2023-04-03T10:28:18;10.20;;;2.10;;
74945;SDS011;63509;45.250;38.102;2023-04-03T10:30:51;9.65;;;1.65;;
74945;SDS011;63509;45.250;38.102;2023-04-03T10:55:53;16.67;;;2.60;;
74945;SDS011;63509;45.250;38.102;2023-04-03T10:58:44;17.55;;;2.65;;
74945;SDS011;63509;45.250;38.102;2023-04-03T11:01:16;18.50;;;2.20;;
74945;SDS011;63509;45.250;38.102;2023-04-03T11:03:47;13.30;;;2.25;;
74945;SDS011;63509;45.250;38.102;2023-04-03T11:06:18;12.45;;;2.30;;
74945;SDS011;63509;45.250;38.102;2023-04-03T11:11:33;28.45;;;2.63;;
74945;SDS011;63509;45.250;38.102;2023-04-03T11:16:50;34.05;;;3.47;;
74945;SDS011;63509;45.250;38.102;2023-04-03T11:19:33;13.93;;;3.08;;
74945;SDS011;63509;45.250;38.102;2023-04-03T11:22:16;12.20;;;3.33;;
74945;SDS011;63509;45.250;38.102;2023-04-03T11:25:32;17.70;;;2.13;;
74945;SDS011;63509;45.250;38.102;2023-04-03T11:28:03;9.77;;;2.60;;
74945;SDS011;63509;45.250;38.102;2023-04-03T11:30:39;19.02;;;3.47;;
74945;SDS011;63509;45.250;38.102;2023-04-03T11:33:32;10.77;;;2.88;;
74945;SDS011;63509;45.250;38.102;2023-04-03T11:36:06;16.98;;;4.03;;
74945;SDS011;63509;45.250;38.102;2023-04-03T11:38:38;7.10;;;1.90;;
74945;SDS011;63509;45.250;38.102;2023-04-03T11:41:09;24.05;;;2.53;;
74945;SDS011;63509;45.250;38.102;2023-04-03T11:43:55;15.35;;;2.67;;
74945;SDS011;63509;45.250;38.102;2023-04-03T11:47:12;9.88;;;2.75;;
74945;SDS011;63509;45.250;38.102;2023-04-03T11:52:09;7.72;;;2.65;;
74945;SDS011;63509;45.250;38.102;2023-04-03T11:54:43;10.27;;;2.10;;
74945;SDS011;63509;45.250;38.102;2023-04-03T12:16:19;9.23;;;2.42;;
74945;SDS011;63509;45.250;38.102;2023-04-03T12:24:00;16.40;;;2.47;;
74945;SDS011;63509;45.250;38.102;2023-04-03T12:26:34;7.95;;;2.22;;
74945;SDS011;63509;45.250;38.102;2023-04-03T12:29:23;16.80;;;3.03;;
74945;SDS011;63509;45.250;38.102;2023-04-03T12:31:56;8.48;;;2.38;;
74945;SDS011;63509;45.250;38.102;2023-04-03T12:43:36;8.38;;;3.75;;
74945;SDS011;63509;45.250;38.102;2023-04-03T12:54:15;10.27;;;3.53;;
74945;SDS011;63509;45.250;38.102;2023-04-03T12:56:46;10.85;;;3.42;;
74945;SDS011;63509;45.250;38.102;2023-04-03T12:59:22;9.10;;;2.97;;
74945;SDS011;63509;45.250;38.102;2023-04-03T13:01:57;5.68;;;2.50;;
74945;SDS011;63509;45.250;38.102;2023-04-03T13:04:26;6.38;;;2.33;;
74945;SDS011;63509;45.250;38.102;2023-04-03T13:06:53;5.05;;;2.60;;
74945;SDS011;63509;45.250;38.102;2023-04-03T13:09:24;7.15;;;3.00;;
74945;SDS011;63509;45.250;38.102;2023-04-03T13:12:01;6.13;;;2.50;;
74945;SDS011;63509;45.250;38.102;2023-04-03T13:14:34;8.00;;;2.22;;
74945;SDS011;63509;45.250;38.102;2023-04-03T13:17:05;5.28;;;2.30;;
74945;SDS011;63509;45.250;38.102;2023-04-03T13:19:38;4.25;;;2.58;;
74945;SDS011;63509;45.250;38.102;2023-04-03T13:22:08;11.75;;;3.22;;
74945;SDS011;63509;45.250;38.102;2023-04-03T13:24:44;8.30;;;2.55;;
74945;SDS011;63509;45.250;38.102;2023-04-03T13:27:12;8.80;;;2.53;;
74945;SDS011;63509;45.250;38.102;2023-04-03T13:29:39;6.82;;;2.72;;
74945;SDS011;63509;45.250;38.102;2023-04-03T13:32:05;6.72;;;3.40;;
74945;SDS011;63509;45.250;38.102;2023-04-03T13:34:38;12.38;;;2.65;;
74945;SDS011;63509;45.250;38.102;2023-04-03T13:37:07;16.15;;;3.05;;
74945;SDS011;63509;45.250;38.102;2023-04-03T13:42:35;8.25;;;3.08;;
74945;SDS011;63509;45.250;38.102;2023-04-03T13:45:08;11.48;;;4.53;;
74945;SDS011;63509;45.250;38.102;2023-04-03T13:47:46;12.38;;;3.47;;
74945;SDS011;63509;45.250;38.102;2023-04-03T13:50:24;10.95;;;2.92;;
74945;SDS011;63509;45.250;38.102;2023-04-03T13:52:53;9.77;;;4.00;;
74945;SDS011;63509;45.250;38.102;2023-04-03T13:55:22;5.63;;;2.95;;
74945;SDS011;63509;45.250;38.102;2023-04-03T13:57:58;12.75;;;3.10;;
74945;SDS011;63509;45.250;38.102;2023-04-03T14:02:58;13.45;;;5.70;;
74945;SDS011;63509;45.250;38.102;2023-04-03T14:05:24;14.18;;;4.50;;
74945;SDS011;63509;45.250;38.102;2023-04-03T14:07:53;9.75;;;4.65;;
74945;SDS011;63509;45.250;38.102;2023-04-03T14:10:20;10.45;;;3.97;;
74945;SDS011;63509;45.250;38.102;2023-04-03T14:12:46;14.10;;;4.35;;
74945;SDS011;63509;45.250;38.102;2023-04-03T14:15:16;9.27;;;2.80;;
74945;SDS011;63509;45.250;38.102;2023-04-03T14:17:49;5.55;;;2.58;;
74945;SDS011;63509;45.250;38.102;2023-04-03T14:20:18;4.60;;;2.75;;
74945;SDS011;63509;45.250;38.102;2023-04-03T14:22:47;17.55;;;3.40;;
74945;SDS011;63509;45.250;38.102;2023-04-03T14:25:14;12.98;;;3.10;;
74945;SDS011;63509;45.250;38.102;2023-04-03T14:27:43;8.23;;;3.00;;
74945;SDS011;63509;45.250;38.102;2023-04-03T14:30:23;17.38;;;3.33;;
74945;SDS011;63509;45.250;38.102;2023-04-03T14:32:52;8.90;;;2.80;;
74945;SDS011;63509;45.250;38.102;2023-04-03T14:35:18;9.65;;;3.22;;
74945;SDS011;63509;45.250;38.102;2023-04-03T14:37:46;26.75;;;4.32;;
74945;SDS011;63509;45.250;38.102;2023-04-03T14:40:15;6.05;;;3.83;;
74945;SDS011;63509;45.250;38.102;2023-04-03T14:42:43;7.15;;;4.68;;
74945;SDS011;63509;45.250;38.102;2023-04-03T14:45:10;13.93;;;4.70;;
74945;SDS011;63509;45.250;38.102;2023-04-03T14:47:55;6.38;;;4.10;;
74945;SDS011;63509;45.250;38.102;2023-04-03T14:50:24;7.32;;;3.08;;
74945;SDS011;63509;45.250;38.102;2023-04-03T14:52:53;8.48;;;3.22;;
74945;SDS011;63509;45.250;38.102;2023-04-03T14:55:22;16.27;;;2.80;;
74945;SDS011;63509;45.250;38.102;2023-04-03T14:57:49;9.30;;;2.97;;
74945;SDS011;63509;45.250;38.102;2023-04-03T15:00:17;26.15;;;3.33;;
74945;SDS011;63509;45.250;38.102;2023-04-03T15:02:46;7.18;;;2.42;;
74945;SDS011;63509;45.250;38.102;2023-04-03T15:05:13;10.73;;;2.70;;
74945;SDS011;63509;45.250;38.102;2023-04-03T15:07:45;4.78;;;2.60;;
74945;SDS011;63509;45.250;38.102;2023-04-03T15:10:27;4.30;;;2.88;;
74945;SDS011;63509;45.250;38.102;2023-04-03T15:12:54;9.52;;;2.72;;
74945;SDS011;63509;45.250;38.102;2023-04-03T15:15:23;9.00;;;3.28;;
74945;SDS011;63509;45.250;38.102;2023-04-03T15:17:51;6.78;;;2.97;;
74945;SDS011;63509;45.250;38.102;2023-04-03T15:20:20;7.85;;;3.95;;
74945;SDS011;63509;45.250;38.102;2023-04-03T15:22:48;10.68;;;4.60;;
74945;SDS011;63509;45.250;38.102;2023-04-03T15:25:14;12.82;;;6.57;;
74945;SDS011;63509;45.250;38.102;2023-04-03T15:27:41;13.73;;;8.10;;
74945;SDS011;63509;45.250;38.102;2023-04-03T15:30:07;14.13;;;5.72;;
74945;SDS011;63509;45.250;38.102;2023-04-03T15:32:38;26.02;;;6.18;;
74945;SDS011;63509;45.250;38.102;2023-04-03T15:35:05;11.82;;;6.05;;
74945;SDS011;63509;45.250;38.102;2023-04-03T15:37:32;14.85;;;5.90;;
74945;SDS011;63509;45.250;38.102;2023-04-03T15:39:58;21.05;;;6.22;;
74945;SDS011;63509;45.250;38.102;2023-04-03T15:42:24;21.88;;;6.55;;
74945;SDS011;63509;45.250;38.102;2023-04-03T15:44:50;18.20;;;8.63;;
74945;SDS011;63509;45.250;38.102;2023-04-03T15:47:16;18.27;;;7.65;;
74945;SDS011;63509;45.250;38.102;2023-04-03T15:49:43;21.98;;;7.53;;
74945;SDS011;63509;45.250;38.102;2023-04-03T15:52:09;12.38;;;8.50;;
74945;SDS011;63509;45.250;38.102;2023-04-03T15:54:35;32.15;;;9.43;;
74945;SDS011;63509;45.250;38.102;2023-04-03T15:57:01;25.20;;;9.15;;
74945;SDS011;63509;45.250;38.102;2023-04-03T15:59:28;24.70;;;8.18;;
74945;SDS011;63509;45.250;38.102;2023-04-03T16:01:56;17.80;;;7.75;;
74945;SDS011;63509;45.250;38.102;2023-04-03T16:04:22;40.78;;;7.55;;
74945;SDS011;63509;45.250;38.102;2023-04-03T16:06:49;15.88;;;7.30;;
74945;SDS011;63509;45.250;38.102;2023-04-03T16:09:16;16.90;;;8.10;;
74945;SDS011;63509;45.250;38.102;2023-04-03T16:11:42;26.73;;;6.90;;
74945;SDS011;63509;45.250;38.102;2023-04-03T16:14:09;28.98;;;7.70;;
74945;SDS011;63509;45.250;38.102;2023-04-03T16:16:35;48.92;;;9.82;;
74945;SDS011;63509;45.250;38.102;2023-04-03T16:19:02;22.38;;;9.25;;
74945;SDS011;63509;45.250;38.102;2023-04-03T16:21:29;18.27;;;6.78;;
74945;SDS011;63509;45.250;38.102;2023-04-03T16:23:57;10.10;;;5.78;;
74945;SDS011;63509;45.250;38.102;2023-04-03T16:26:24;9.63;;;4.93;;
74945;SDS011;63509;45.250;38.102;2023-04-03T16:28:52;16.02;;;9.95;;
74945;SDS011;63509;45.250;38.102;2023-04-03T16:31:18;18.52;;;12.63;;
74945;SDS011;63509;45.250;38.102;2023-04-03T16:33:45;24.42;;;12.82;;
74945;SDS011;63509;45.250;38.102;2023-04-03T16:36:11;24.75;;;9.55;;
74945;SDS011;63509;45.250;38.102;2023-04-03T16:38:37;20.13;;;8.15;;
74945;SDS011;63509;45.250;38.102;2023-04-03T16:41:03;13.57;;;7.13;;
74945;SDS011;63509;45.250;38.102;2023-04-03T16:43:33;14.18;;;6.32;;
74945;SDS011;63509;45.250;38.102;2023-04-03T16:46:01;10.13;;;6.47;;
74945;SDS011;63509;45.250;38.102;2023-04-03T16:48:27;11.35;;;5.55;;
74945;SDS011;63509;45.250;38.102;2023-04-03T16:50:54;10.27;;;5.47;;
74945;SDS011;63509;45.250;38.102;2023-04-03T16:53:21;15.57;;;4.68;;
74945;SDS011;63509;45.250;38.102;2023-04-03T16:55:48;10.77;;;4.72;;
74945;SDS011;63509;45.250;38.102;2023-04-03T16:58:15;9.88;;;5.00;;